sensor_id;sensor_type;location;lat;lon;timestamp;temperature;humidity
46758;DHT22;32509;47.750;-3.396;2023-06-04T00:00:07;17.90;99.90
46758;DHT22;32509;47.750;-3.396;2023-06-04T00:02:33;17.80;99.90
46758;DHT22;32509;47.750;-3.396;2023-06-04T00:04:59;17.90;99.90
46758;DHT22;32509;47.750;-3.396;2023-06-04T00:07:25;17.90;99.90
46758;DHT22;32509;47.750;-3.396;2023-06-04T00:09:52;17.90;99.90
46758;DHT22;32509;47.750;-3.396;2023-06-04T00:12:18;17.90;99.90
46758;DHT22;32509;47.750;-3.396;2023-06-04T00:14:44;17.90;99.90
46758;DHT22;32509;47.750;-3.396;2023-06-04T00:17:10;17.80;99.90
46758;DHT22;32509;47.750;-3.396;2023-06-04T00:19:38;17.80;99.90
46758;DHT22;32509;47.750;-3.396;2023-06-04T00:22:05;17.90;99.90
46758;DHT22;32509;47.750;-3.396;2023-06-04T00:24:31;17.80;99.90
46758;DHT22;32509;47.750;-3.396;2023-06-04T00:26:58;17.90;99.90
46758;DHT22;32509;47.750;-3.396;2023-06-04T00:29:23;17.80;99.90
46758;DHT22;32509;47.750;-3.396;2023-06-04T00:31:49;17.80;99.90
46758;DHT22;32509;47.750;-3.396;2023-06-04T00:34:17;17.80;99.90
46758;DHT22;32509;47.750;-3.396;2023-06-04T00:36:43;17.70;99.90
46758;DHT22;32509;47.750;-3.396;2023-06-04T00:39:09;17.80;99.90
46758;DHT22;32509;47.750;-3.396;2023-06-04T00:41:35;17.70;99.90
46758;DHT22;32509;47.750;-3.396;2023-06-04T00:44:01;17.70;99.90
46758;DHT22;32509;47.750;-3.396;2023-06-04T00:46:28;17.70;99.90
46758;DHT22;32509;47.750;-3.396;2023-06-04T00:48:55;17.70;99.90
46758;DHT22;32509;47.750;-3.396;2023-06-04T00:51:21;17.70;99.90
46758;DHT22;32509;47.750;-3.396;2023-06-04T00:53:51;17.70;99.90
46758;DHT22;32509;47.750;-3.396;2023-06-04T00:56:17;17.70;99.90
46758;DHT22;32509;47.750;-3.396;2023-06-04T00:58:44;17.70;99.90
46758;DHT22;32509;47.750;-3.396;2023-06-04T01:02:00;17.70;99.90
46758;DHT22;32509;47.750;-3.396;2023-06-04T01:04:02;17.60;99.90
46758;DHT22;32509;47.750;-3.396;2023-06-04T01:06:39;17.60;99.90
46758;DHT22;32509;47.750;-3.396;2023-06-04T01:09:05;17.60;99.90
46758;DHT22;32509;47.750;-3.396;2023-06-04T01:11:35;17.70;99.90
46758;DHT22;32509;47.750;-3.396;2023-06-04T01:14:03;17.70;99.90
46758;DHT22;32509;47.750;-3.396;2023-06-04T01:16:45;17.70;99.90
46758;DHT22;32509;47.750;-3.396;2023-06-04T01:19:29;17.60;99.90
46758;DHT22;32509;47.750;-3.396;2023-06-04T01:22:03;17.60;99.90
46758;DHT22;32509;47.750;-3.396;2023-06-04T01:24:34;17.60;99.90
46758;DHT22;32509;47.750;-3.396;2023-06-04T01:27:03;17.60;99.90
46758;DHT22;32509;47.750;-3.396;2023-06-04T01:29:29;17.60;99.90
46758;DHT22;32509;47.750;-3.396;2023-06-04T01:31:55;17.60;99.90
46758;DHT22;32509;47.750;-3.396;2023-06-04T01:34:22;17.60;99.90
46758;DHT22;32509;47.750;-3.396;2023-06-04T01:36:48;17.60;99.90
46758;DHT22;32509;47.750;-3.396;2023-06-04T01:39:14;17.60;99.90
46758;DHT22;32509;47.750;-3.396;2023-06-04T01:41:40;17.60;99.90
46758;DHT22;32509;47.750;-3.396;2023-06-04T01:44:05;17.60;99.90
46758;DHT22;32509;47.750;-3.396;2023-06-04T01:46:31;17.60;99.90
46758;DHT22;32509;47.750;-3.396;2023-06-04T01:48:57;17.50;99.90
46758;DHT22;32509;47.750;-3.396;2023-06-04T01:51:22;17.60;99.90
46758;DHT22;32509;47.750;-3.396;2023-06-04T01:53:48;17.50;99.90
46758;DHT22;32509;47.750;-3.396;2023-06-04T01:56:14;17.60;99.90
46758;DHT22;32509;47.750;-3.396;2023-06-04T01:58:40;17.60;99.90
46758;DHT22;32509;47.750;-3.396;2023-06-04T02:01:06;17.60;99.90
46758;DHT22;32509;47.750;-3.396;2023-06-04T02:03:32;17.60;99.90
46758;DHT22;32509;47.750;-3.396;2023-06-04T02:06:03;17.50;99.90
46758;DHT22;32509;47.750;-3.396;2023-06-04T02:08:30;17.40;99.90
46758;DHT22;32509;47.750;-3.396;2023-06-04T02:10:56;17.50;99.90
46758;DHT22;32509;47.750;-3.396;2023-06-04T02:13:22;17.50;99.90
46758;DHT22;32509;47.750;-3.396;2023-06-04T02:15:47;17.40;99.90
46758;DHT22;32509;47.750;-3.396;2023-06-04T02:18:16;17.40;99.90
46758;DHT22;32509;47.750;-3.396;2023-06-04T02:20:45;17.50;99.90
46758;DHT22;32509;47.750;-3.396;2023-06-04T02:23:11;17.50;99.90
46758;DHT22;32509;47.750;-3.396;2023-06-04T02:25:37;17.40;99.90
46758;DHT22;32509;47.750;-3.396;2023-06-04T02:28:03;17.50;99.90
46758;DHT22;32509;47.750;-3.396;2023-06-04T02:30:29;17.40;99.90
46758;DHT22;32509;47.750;-3.396;2023-06-04T02:32:54;17.50;99.90
46758;DHT22;32509;47.750;-3.396;2023-06-04T02:35:21;17.50;99.90
46758;DHT22;32509;47.750;-3.396;2023-06-04T02:37:51;17.50;99.90
46758;DHT22;32509;47.750;-3.396;2023-06-04T02:40:17;17.50;99.90
46758;DHT22;32509;47.750;-3.396;2023-06-04T02:42:43;17.50;99.90
46758;DHT22;32509;47.750;-3.396;2023-06-04T02:45:11;17.50;99.90
46758;DHT22;32509;47.750;-3.396;2023-06-04T02:47:37;17.50;99.90
46758;DHT22;32509;47.750;-3.396;2023-06-04T02:50:04;17.50;99.90
46758;DHT22;32509;47.750;-3.396;2023-06-04T02:52:29;17.40;99.90
46758;DHT22;32509;47.750;-3.396;2023-06-04T02:54:56;17.50;99.90
46758;DHT22;32509;47.750;-3.396;2023-06-04T02:57:22;17.40;99.90
46758;DHT22;32509;47.750;-3.396;2023-06-04T02:59:48;17.40;99.90
46758;DHT22;32509;47.750;-3.396;2023-06-04T03:02:14;17.40;99.90
46758;DHT22;32509;47.750;-3.396;2023-06-04T03:04:42;17.40;99.90
46758;DHT22;32509;47.750;-3.396;2023-06-04T03:07:09;17.50;99.90
46758;DHT22;32509;47.750;-3.396;2023-06-04T03:09:37;17.50;99.90
46758;DHT22;32509;47.750;-3.396;2023-06-04T03:12:03;17.50;99.90
46758;DHT22;32509;47.750;-3.396;2023-06-04T03:14:31;17.40;99.90
46758;DHT22;32509;47.750;-3.396;2023-06-04T03:17:01;17.40;99.90
46758;DHT22;32509;47.750;-3.396;2023-06-04T03:19:36;17.40;99.90
46758;DHT22;32509;47.750;-3.396;2023-06-04T03:22:04;17.30;99.90
46758;DHT22;32509;47.750;-3.396;2023-06-04T03:24:38;17.30;99.90
46758;DHT22;32509;47.750;-3.396;2023-06-04T03:27:05;17.30;99.90
46758;DHT22;32509;47.750;-3.396;2023-06-04T03:29:33;17.30;99.90
46758;DHT22;32509;47.750;-3.396;2023-06-04T03:32:00;17.30;99.90
46758;DHT22;32509;47.750;-3.396;2023-06-04T03:34:26;17.40;99.90
46758;DHT22;32509;47.750;-3.396;2023-06-04T03:36:53;17.40;99.90
46758;DHT22;32509;47.750;-3.396;2023-06-04T03:39:20;17.40;99.90
46758;DHT22;32509;47.750;-3.396;2023-06-04T03:41:46;17.30;99.90
46758;DHT22;32509;47.750;-3.396;2023-06-04T03:44:15;17.30;99.90
46758;DHT22;32509;47.750;-3.396;2023-06-04T03:46:42;17.30;99.90
46758;DHT22;32509;47.750;-3.396;2023-06-04T03:49:09;17.30;99.90
46758;DHT22;32509;47.750;-3.396;2023-06-04T03:51:39;17.30;99.90
46758;DHT22;32509;47.750;-3.396;2023-06-04T03:54:05;17.30;99.90
46758;DHT22;32509;47.750;-3.396;2023-06-04T03:56:31;17.20;99.90
46758;DHT22;32509;47.750;-3.396;2023-06-04T03:58:58;17.20;99.90
46758;DHT22;32509;47.750;-3.396;2023-06-04T04:01:24;17.30;99.90
46758;DHT22;32509;47.750;-3.396;2023-06-04T04:03:50;17.30;99.90
46758;DHT22;32509;47.750;-3.396;2023-06-04T04:06:17;17.20;99.90
46758;DHT22;32509;47.750;-3.396;2023-06-04T04:08:42;17.20;99.90
46758;DHT22;32509;47.750;-3.396;2023-06-04T04:11:13;17.20;99.90
46758;DHT22;32509;47.750;-3.396;2023-06-04T04:13:39;17.20;99.90
46758;DHT22;32509;47.750;-3.396;2023-06-04T04:16:05;17.10;99.90
46758;DHT22;32509;47.750;-3.396;2023-06-04T04:18:35;17.10;99.90
46758;DHT22;32509;47.750;-3.396;2023-06-04T04:21:02;17.20;99.90
46758;DHT22;32509;47.750;-3.396;2023-06-04T04:23:29;17.10;99.90
46758;DHT22;32509;47.750;-3.396;2023-06-04T04:25:55;17.10;99.90
46758;DHT22;32509;47.750;-3.396;2023-06-04T04:28:24;17.10;99.90
46758;DHT22;32509;47.750;-3.396;2023-06-04T04:30:54;17.10;99.90
46758;DHT22;32509;47.750;-3.396;2023-06-04T04:33:20;17.10;99.90
46758;DHT22;32509;47.750;-3.396;2023-06-04T04:35:45;17.10;99.90
46758;DHT22;32509;47.750;-3.396;2023-06-04T04:38:13;17.10;99.90
46758;DHT22;32509;47.750;-3.396;2023-06-04T04:40:39;17.10;99.90
46758;DHT22;32509;47.750;-3.396;2023-06-04T04:43:05;17.10;99.90
46758;DHT22;32509;47.750;-3.396;2023-06-04T04:45:31;17.20;99.90
46758;DHT22;32509;47.750;-3.396;2023-06-04T04:47:56;17.10;99.90
46758;DHT22;32509;47.750;-3.396;2023-06-04T04:50:22;17.10;99.90
46758;DHT22;32509;47.750;-3.396;2023-06-04T04:52:48;17.10;99.90
46758;DHT22;32509;47.750;-3.396;2023-06-04T04:55:13;17.10;99.90
46758;DHT22;32509;47.750;-3.396;2023-06-04T04:57:39;17.10;99.90
46758;DHT22;32509;47.750;-3.396;2023-06-04T05:00:06;17.10;99.90
46758;DHT22;32509;47.750;-3.396;2023-06-04T05:02:38;17.10;99.90
46758;DHT22;32509;47.750;-3.396;2023-06-04T05:05:04;17.00;99.90
46758;DHT22;32509;47.750;-3.396;2023-06-04T05:07:30;17.00;99.90
46758;DHT22;32509;47.750;-3.396;2023-06-04T05:09:55;17.00;99.90
46758;DHT22;32509;47.750;-3.396;2023-06-04T05:12:24;17.10;99.90
46758;DHT22;32509;47.750;-3.396;2023-06-04T05:14:50;17.10;99.90
46758;DHT22;32509;47.750;-3.396;2023-06-04T05:17:16;17.10;99.90
46758;DHT22;32509;47.750;-3.396;2023-06-04T05:19:47;17.10;99.90
46758;DHT22;32509;47.750;-3.396;2023-06-04T05:22:12;17.10;99.90
46758;DHT22;32509;47.750;-3.396;2023-06-04T05:24:41;17.10;99.90
46758;DHT22;32509;47.750;-3.396;2023-06-04T05:27:06;17.00;99.90
46758;DHT22;32509;47.750;-3.396;2023-06-04T05:29:34;17.10;99.90
46758;DHT22;32509;47.750;-3.396;2023-06-04T05:32:00;17.10;99.90
46758;DHT22;32509;47.750;-3.396;2023-06-04T05:34:26;17.10;99.90
46758;DHT22;32509;47.750;-3.396;2023-06-04T05:36:52;17.10;99.90
46758;DHT22;32509;47.750;-3.396;2023-06-04T05:39:18;17.10;99.90
46758;DHT22;32509;47.750;-3.396;2023-06-04T05:41:44;17.10;99.90
46758;DHT22;32509;47.750;-3.396;2023-06-04T05:44:10;17.10;99.90
46758;DHT22;32509;47.750;-3.396;2023-06-04T05:46:36;17.10;99.90
46758;DHT22;32509;47.750;-3.396;2023-06-04T05:49:02;17.10;99.90
46758;DHT22;32509;47.750;-3.396;2023-06-04T05:51:28;17.10;99.90
46758;DHT22;32509;47.750;-3.396;2023-06-04T05:53:54;17.10;99.90
46758;DHT22;32509;47.750;-3.396;2023-06-04T05:56:20;17.20;99.90
46758;DHT22;32509;47.750;-3.396;2023-06-04T05:58:52;17.20;99.90
46758;DHT22;32509;47.750;-3.396;2023-06-04T06:01:18;17.20;99.90
46758;DHT22;32509;47.750;-3.396;2023-06-04T06:03:43;17.20;99.90
46758;DHT22;32509;47.750;-3.396;2023-06-04T06:06:09;17.20;99.90
46758;DHT22;32509;47.750;-3.396;2023-06-04T06:08:38;17.20;99.90
46758;DHT22;32509;47.750;-3.396;2023-06-04T06:11:04;17.20;99.90
46758;DHT22;32509;47.750;-3.396;2023-06-04T06:13:30;17.20;99.90
46758;DHT22;32509;47.750;-3.396;2023-06-04T06:15:56;17.20;99.90
46758;DHT22;32509;47.750;-3.396;2023-06-04T06:18:22;17.30;99.90
46758;DHT22;32509;47.750;-3.396;2023-06-04T06:20:48;17.30;99.90
46758;DHT22;32509;47.750;-3.396;2023-06-04T06:23:14;17.30;99.90
46758;DHT22;32509;47.750;-3.396;2023-06-04T06:25:41;17.30;99.90
46758;DHT22;32509;47.750;-3.396;2023-06-04T06:28:06;17.30;99.90
46758;DHT22;32509;47.750;-3.396;2023-06-04T06:30:32;17.30;99.90
46758;DHT22;32509;47.750;-3.396;2023-06-04T06:32:58;17.40;99.90
46758;DHT22;32509;47.750;-3.396;2023-06-04T06:35:24;17.30;99.90
46758;DHT22;32509;47.750;-3.396;2023-06-04T06:37:50;17.40;99.90
46758;DHT22;32509;47.750;-3.396;2023-06-04T06:40:15;17.40;99.90
46758;DHT22;32509;47.750;-3.396;2023-06-04T06:42:41;17.40;99.90
46758;DHT22;32509;47.750;-3.396;2023-06-04T06:45:07;17.40;99.90
46758;DHT22;32509;47.750;-3.396;2023-06-04T06:47:33;17.50;99.90
46758;DHT22;32509;47.750;-3.396;2023-06-04T06:49:59;17.50;99.90
46758;DHT22;32509;47.750;-3.396;2023-06-04T06:52:24;17.50;99.90
46758;DHT22;32509;47.750;-3.396;2023-06-04T06:54:50;17.50;99.90
46758;DHT22;32509;47.750;-3.396;2023-06-04T06:57:16;17.60;99.90
46758;DHT22;32509;47.750;-3.396;2023-06-04T06:59:42;17.60;99.90
46758;DHT22;32509;47.750;-3.396;2023-06-04T07:02:08;17.60;99.90
46758;DHT22;32509;47.750;-3.396;2023-06-04T07:04:33;17.60;99.90
46758;DHT22;32509;47.750;-3.396;2023-06-04T07:06:59;17.70;99.90
46758;DHT22;32509;47.750;-3.396;2023-06-04T07:09:26;17.70;99.90
46758;DHT22;32509;47.750;-3.396;2023-06-04T07:11:51;17.80;99.90
46758;DHT22;32509;47.750;-3.396;2023-06-04T07:14:17;17.80;99.90
46758;DHT22;32509;47.750;-3.396;2023-06-04T07:16:43;17.80;99.90
46758;DHT22;32509;47.750;-3.396;2023-06-04T07:19:08;17.80;99.90
46758;DHT22;32509;47.750;-3.396;2023-06-04T07:21:34;17.90;99.90
46758;DHT22;32509;47.750;-3.396;2023-06-04T07:24:00;17.90;99.90
46758;DHT22;32509;47.750;-3.396;2023-06-04T07:26:26;18.00;99.90
46758;DHT22;32509;47.750;-3.396;2023-06-04T07:28:56;18.00;99.90
46758;DHT22;32509;47.750;-3.396;2023-06-04T07:31:22;18.10;99.90
46758;DHT22;32509;47.750;-3.396;2023-06-04T07:33:48;18.10;99.90
46758;DHT22;32509;47.750;-3.396;2023-06-04T07:36:14;18.10;99.90
46758;DHT22;32509;47.750;-3.396;2023-06-04T07:38:40;18.10;99.90
46758;DHT22;32509;47.750;-3.396;2023-06-04T07:41:06;18.20;99.90
46758;DHT22;32509;47.750;-3.396;2023-06-04T07:43:34;18.20;99.90
46758;DHT22;32509;47.750;-3.396;2023-06-04T07:46:04;18.30;99.90
46758;DHT22;32509;47.750;-3.396;2023-06-04T07:48:29;18.30;99.90
46758;DHT22;32509;47.750;-3.396;2023-06-04T07:50:58;18.30;99.90
46758;DHT22;32509;47.750;-3.396;2023-06-04T07:53:24;18.40;99.90
46758;DHT22;32509;47.750;-3.396;2023-06-04T07:55:51;18.40;99.90
46758;DHT22;32509;47.750;-3.396;2023-06-04T07:58:17;18.50;99.90
46758;DHT22;32509;47.750;-3.396;2023-06-04T08:00:43;18.60;99.90
46758;DHT22;32509;47.750;-3.396;2023-06-04T08:03:09;18.60;99.90
46758;DHT22;32509;47.750;-3.396;2023-06-04T08:05:35;18.60;99.90
46758;DHT22;32509;47.750;-3.396;2023-06-04T08:08:01;18.70;99.90
46758;DHT22;32509;47.750;-3.396;2023-06-04T08:10:28;18.80;99.90
46758;DHT22;32509;47.750;-3.396;2023-06-04T08:12:53;18.80;99.90
46758;DHT22;32509;47.750;-3.396;2023-06-04T08:15:19;18.80;99.90
46758;DHT22;32509;47.750;-3.396;2023-06-04T08:17:45;18.90;99.90
46758;DHT22;32509;47.750;-3.396;2023-06-04T08:20:11;19.00;99.90
46758;DHT22;32509;47.750;-3.396;2023-06-04T08:22:37;19.00;99.90
46758;DHT22;32509;47.750;-3.396;2023-06-04T08:25:03;19.10;99.90
46758;DHT22;32509;47.750;-3.396;2023-06-04T08:27:31;19.10;99.90
46758;DHT22;32509;47.750;-3.396;2023-06-04T08:29:57;19.20;99.90
46758;DHT22;32509;47.750;-3.396;2023-06-04T08:32:23;19.30;99.90
46758;DHT22;32509;47.750;-3.396;2023-06-04T08:34:49;19.30;99.90
46758;DHT22;32509;47.750;-3.396;2023-06-04T08:37:16;19.40;99.90
46758;DHT22;32509;47.750;-3.396;2023-06-04T08:39:42;19.40;99.90
46758;DHT22;32509;47.750;-3.396;2023-06-04T08:42:15;19.50;99.90
46758;DHT22;32509;47.750;-3.396;2023-06-04T08:44:43;19.50;99.90
46758;DHT22;32509;47.750;-3.396;2023-06-04T08:47:12;19.60;99.90
46758;DHT22;32509;47.750;-3.396;2023-06-04T08:49:40;19.60;99.90
46758;DHT22;32509;47.750;-3.396;2023-06-04T08:52:06;19.70;99.90
46758;DHT22;32509;47.750;-3.396;2023-06-04T08:54:33;19.80;99.90
46758;DHT22;32509;47.750;-3.396;2023-06-04T08:57:00;19.80;99.90
46758;DHT22;32509;47.750;-3.396;2023-06-04T08:59:27;19.90;99.90
46758;DHT22;32509;47.750;-3.396;2023-06-04T09:01:54;19.90;99.90
46758;DHT22;32509;47.750;-3.396;2023-06-04T09:04:20;19.90;99.90
46758;DHT22;32509;47.750;-3.396;2023-06-04T09:06:47;20.00;99.90
46758;DHT22;32509;47.750;-3.396;2023-06-04T09:09:14;20.10;99.90
46758;DHT22;32509;47.750;-3.396;2023-06-04T09:11:56;20.10;99.90
46758;DHT22;32509;47.750;-3.396;2023-06-04T09:14:22;20.20;99.90
46758;DHT22;32509;47.750;-3.396;2023-06-04T09:16:50;20.30;99.90
46758;DHT22;32509;47.750;-3.396;2023-06-04T09:19:17;20.30;99.90
46758;DHT22;32509;47.750;-3.396;2023-06-04T09:24:23;20.50;99.90
46758;DHT22;32509;47.750;-3.396;2023-06-04T09:26:50;20.50;99.90
46758;DHT22;32509;47.750;-3.396;2023-06-04T09:29:16;20.60;99.90
46758;DHT22;32509;47.750;-3.396;2023-06-04T09:31:47;20.70;99.90
46758;DHT22;32509;47.750;-3.396;2023-06-04T09:34:13;20.80;99.90
46758;DHT22;32509;47.750;-3.396;2023-06-04T09:36:40;20.90;99.90
46758;DHT22;32509;47.750;-3.396;2023-06-04T09:39:18;20.90;99.90
46758;DHT22;32509;47.750;-3.396;2023-06-04T09:41:44;20.90;99.90
46758;DHT22;32509;47.750;-3.396;2023-06-04T09:44:21;20.90;99.90
46758;DHT22;32509;47.750;-3.396;2023-06-04T09:46:57;21.00;99.90
46758;DHT22;32509;47.750;-3.396;2023-06-04T09:49:23;21.00;99.90
46758;DHT22;32509;47.750;-3.396;2023-06-04T09:51:49;21.20;99.90
46758;DHT22;32509;47.750;-3.396;2023-06-04T09:54:15;21.10;99.90
46758;DHT22;32509;47.750;-3.396;2023-06-04T09:56:41;21.20;99.90
46758;DHT22;32509;47.750;-3.396;2023-06-04T09:59:09;21.20;99.90
46758;DHT22;32509;47.750;-3.396;2023-06-04T10:01:39;21.20;99.90
46758;DHT22;32509;47.750;-3.396;2023-06-04T10:04:07;21.20;99.90
46758;DHT22;32509;47.750;-3.396;2023-06-04T10:06:35;21.30;99.90
46758;DHT22;32509;47.750;-3.396;2023-06-04T10:09:05;21.30;99.90
46758;DHT22;32509;47.750;-3.396;2023-06-04T10:11:41;21.30;99.90
46758;DHT22;32509;47.750;-3.396;2023-06-04T10:14:27;21.40;99.90
46758;DHT22;32509;47.750;-3.396;2023-06-04T10:16:57;21.40;99.90
46758;DHT22;32509;47.750;-3.396;2023-06-04T10:19:24;21.50;99.90
46758;DHT22;32509;47.750;-3.396;2023-06-04T10:21:50;21.50;99.90
46758;DHT22;32509;47.750;-3.396;2023-06-04T10:24:18;21.50;99.90
46758;DHT22;32509;47.750;-3.396;2023-06-04T10:26:47;21.60;99.90
46758;DHT22;32509;47.750;-3.396;2023-06-04T10:29:14;21.60;99.90
46758;DHT22;32509;47.750;-3.396;2023-06-04T10:31:40;21.60;99.90
46758;DHT22;32509;47.750;-3.396;2023-06-04T10:34:07;21.60;99.90
46758;DHT22;32509;47.750;-3.396;2023-06-04T10:36:44;21.70;99.90
46758;DHT22;32509;47.750;-3.396;2023-06-04T10:39:11;21.70;99.90
46758;DHT22;32509;47.750;-3.396;2023-06-04T10:41:37;21.80;99.90
46758;DHT22;32509;47.750;-3.396;2023-06-04T10:44:03;21.90;99.90
46758;DHT22;32509;47.750;-3.396;2023-06-04T10:46:41;21.90;99.90
46758;DHT22;32509;47.750;-3.396;2023-06-04T10:49:09;21.90;99.90
46758;DHT22;32509;47.750;-3.396;2023-06-04T10:51:36;22.10;99.90
46758;DHT22;32509;47.750;-3.396;2023-06-04T10:54:03;22.00;99.90
46758;DHT22;32509;47.750;-3.396;2023-06-04T10:56:31;22.10;99.70
46758;DHT22;32509;47.750;-3.396;2023-06-04T10:59:17;22.10;99.90
46758;DHT22;32509;47.750;-3.396;2023-06-04T11:01:44;22.20;99.20
46758;DHT22;32509;47.750;-3.396;2023-06-04T11:04:22;22.10;99.70
46758;DHT22;32509;47.750;-3.396;2023-06-04T11:07:05;22.10;99.50
46758;DHT22;32509;47.750;-3.396;2023-06-04T11:09:40;22.10;99.90
46758;DHT22;32509;47.750;-3.396;2023-06-04T11:12:12;22.20;99.90
46758;DHT22;32509;47.750;-3.396;2023-06-04T11:14:38;22.30;99.40
46758;DHT22;32509;47.750;-3.396;2023-06-04T11:17:11;22.30;99.00
46758;DHT22;32509;47.750;-3.396;2023-06-04T11:19:37;22.30;99.60
46758;DHT22;32509;47.750;-3.396;2023-06-04T11:22:04;22.30;99.80
46758;DHT22;32509;47.750;-3.396;2023-06-04T11:24:32;22.40;99.70
46758;DHT22;32509;47.750;-3.396;2023-06-04T11:26:58;22.40;99.90
46758;DHT22;32509;47.750;-3.396;2023-06-04T11:29:28;22.50;99.90
46758;DHT22;32509;47.750;-3.396;2023-06-04T11:31:54;22.60;99.70
46758;DHT22;32509;47.750;-3.396;2023-06-04T11:34:28;22.60;99.40
46758;DHT22;32509;47.750;-3.396;2023-06-04T11:36:54;22.50;99.70
46758;DHT22;32509;47.750;-3.396;2023-06-04T11:39:21;22.60;99.50
46758;DHT22;32509;47.750;-3.396;2023-06-04T11:41:48;22.60;99.50
46758;DHT22;32509;47.750;-3.396;2023-06-04T11:44:18;22.60;98.60
46758;DHT22;32509;47.750;-3.396;2023-06-04T11:46:45;22.60;99.70
46758;DHT22;32509;47.750;-3.396;2023-06-04T11:49:18;22.70;99.00
46758;DHT22;32509;47.750;-3.396;2023-06-04T11:51:51;22.60;99.10
46758;DHT22;32509;47.750;-3.396;2023-06-04T11:54:17;22.70;99.50
46758;DHT22;32509;47.750;-3.396;2023-06-04T11:56:44;22.70;99.30
46758;DHT22;32509;47.750;-3.396;2023-06-04T11:59:14;22.70;99.80
46758;DHT22;32509;47.750;-3.396;2023-06-04T12:01:42;22.70;99.60
46758;DHT22;32509;47.750;-3.396;2023-06-04T12:04:12;22.70;98.80
46758;DHT22;32509;47.750;-3.396;2023-06-04T12:06:38;22.80;98.40
46758;DHT22;32509;47.750;-3.396;2023-06-04T12:09:04;22.70;97.70
46758;DHT22;32509;47.750;-3.396;2023-06-04T12:11:34;22.70;98.50
46758;DHT22;32509;47.750;-3.396;2023-06-04T12:14:04;22.70;98.60
46758;DHT22;32509;47.750;-3.396;2023-06-04T12:16:31;22.80;98.40
46758;DHT22;32509;47.750;-3.396;2023-06-04T12:19:11;22.80;98.30
46758;DHT22;32509;47.750;-3.396;2023-06-04T12:21:38;22.80;97.90
46758;DHT22;32509;47.750;-3.396;2023-06-04T12:24:08;22.80;98.50
46758;DHT22;32509;47.750;-3.396;2023-06-04T12:26:34;22.70;99.00
46758;DHT22;32509;47.750;-3.396;2023-06-04T12:29:16;22.70;99.40
46758;DHT22;32509;47.750;-3.396;2023-06-04T12:31:44;22.70;99.80
46758;DHT22;32509;47.750;-3.396;2023-06-04T12:34:12;22.80;98.30
46758;DHT22;32509;47.750;-3.396;2023-06-04T12:36:38;22.90;97.90
46758;DHT22;32509;47.750;-3.396;2023-06-04T12:39:04;22.80;98.70
46758;DHT22;32509;47.750;-3.396;2023-06-04T12:41:31;22.80;98.10
46758;DHT22;32509;47.750;-3.396;2023-06-04T12:43:59;22.80;98.00
46758;DHT22;32509;47.750;-3.396;2023-06-04T12:46:25;22.90;96.60
46758;DHT22;32509;47.750;-3.396;2023-06-04T12:48:51;22.90;98.20
46758;DHT22;32509;47.750;-3.396;2023-06-04T12:51:18;22.90;97.70
46758;DHT22;32509;47.750;-3.396;2023-06-04T12:53:44;22.90;98.00
46758;DHT22;32509;47.750;-3.396;2023-06-04T12:56:10;22.90;97.90
46758;DHT22;32509;47.750;-3.396;2023-06-04T12:58:36;23.00;97.90
46758;DHT22;32509;47.750;-3.396;2023-06-04T13:01:02;22.90;98.00
46758;DHT22;32509;47.750;-3.396;2023-06-04T13:03:30;22.90;98.40
46758;DHT22;32509;47.750;-3.396;2023-06-04T13:05:56;22.90;97.20
46758;DHT22;32509;47.750;-3.396;2023-06-04T13:08:22;23.00;97.30
46758;DHT22;32509;47.750;-3.396;2023-06-04T13:10:50;23.00;96.00
46758;DHT22;32509;47.750;-3.396;2023-06-04T13:13:17;23.00;96.90
46758;DHT22;32509;47.750;-3.396;2023-06-04T13:15:43;22.90;97.90
46758;DHT22;32509;47.750;-3.396;2023-06-04T13:18:09;22.90;97.90
46758;DHT22;32509;47.750;-3.396;2023-06-04T13:20:39;22.80;98.60
46758;DHT22;32509;47.750;-3.396;2023-06-04T13:23:06;22.80;97.30
46758;DHT22;32509;47.750;-3.396;2023-06-04T13:25:31;22.80;97.50
46758;DHT22;32509;47.750;-3.396;2023-06-04T13:28:04;22.90;97.20
46758;DHT22;32509;47.750;-3.396;2023-06-04T13:30:30;22.80;97.60
46758;DHT22;32509;47.750;-3.396;2023-06-04T13:32:56;22.90;96.90
46758;DHT22;32509;47.750;-3.396;2023-06-04T13:35:24;22.90;96.90
46758;DHT22;32509;47.750;-3.396;2023-06-04T13:37:50;22.90;96.60
46758;DHT22;32509;47.750;-3.396;2023-06-04T13:40:16;22.80;96.00
46758;DHT22;32509;47.750;-3.396;2023-06-04T13:42:41;22.80;95.90
46758;DHT22;32509;47.750;-3.396;2023-06-04T13:45:10;22.80;96.30
46758;DHT22;32509;47.750;-3.396;2023-06-04T13:47:36;22.80;95.40
46758;DHT22;32509;47.750;-3.396;2023-06-04T13:50:02;22.80;96.00
46758;DHT22;32509;47.750;-3.396;2023-06-04T13:52:29;22.80;96.30
46758;DHT22;32509;47.750;-3.396;2023-06-04T13:54:55;22.80;96.40
46758;DHT22;32509;47.750;-3.396;2023-06-04T13:57:22;22.70;96.70
46758;DHT22;32509;47.750;-3.396;2023-06-04T13:59:49;22.70;95.90
46758;DHT22;32509;47.750;-3.396;2023-06-04T14:02:14;22.80;94.80
46758;DHT22;32509;47.750;-3.396;2023-06-04T14:04:41;22.70;95.00
46758;DHT22;32509;47.750;-3.396;2023-06-04T14:07:06;22.70;95.60
46758;DHT22;32509;47.750;-3.396;2023-06-04T14:09:32;22.70;95.10
46758;DHT22;32509;47.750;-3.396;2023-06-04T14:11:58;22.70;95.60
46758;DHT22;32509;47.750;-3.396;2023-06-04T14:14:24;22.70;94.30
46758;DHT22;32509;47.750;-3.396;2023-06-04T14:16:50;22.60;94.70
46758;DHT22;32509;47.750;-3.396;2023-06-04T14:19:16;22.50;95.70
46758;DHT22;32509;47.750;-3.396;2023-06-04T14:21:43;22.50;95.30
46758;DHT22;32509;47.750;-3.396;2023-06-04T14:24:09;22.60;95.10
46758;DHT22;32509;47.750;-3.396;2023-06-04T14:26:35;22.60;95.40
46758;DHT22;32509;47.750;-3.396;2023-06-04T14:29:02;22.70;94.80
46758;DHT22;32509;47.750;-3.396;2023-06-04T14:31:27;22.70;95.00
46758;DHT22;32509;47.750;-3.396;2023-06-04T14:33:53;22.60;95.10
46758;DHT22;32509;47.750;-3.396;2023-06-04T14:36:19;22.60;95.00
46758;DHT22;32509;47.750;-3.396;2023-06-04T14:38:45;22.60;95.30
46758;DHT22;32509;47.750;-3.396;2023-06-04T14:41:11;22.70;95.10
46758;DHT22;32509;47.750;-3.396;2023-06-04T14:43:37;22.70;95.50
46758;DHT22;32509;47.750;-3.396;2023-06-04T14:46:04;22.70;95.60
46758;DHT22;32509;47.750;-3.396;2023-06-04T14:48:30;22.70;95.40
46758;DHT22;32509;47.750;-3.396;2023-06-04T14:50:56;22.70;96.10
46758;DHT22;32509;47.750;-3.396;2023-06-04T14:53:22;22.70;95.30
46758;DHT22;32509;47.750;-3.396;2023-06-04T14:55:48;22.60;95.80
46758;DHT22;32509;47.750;-3.396;2023-06-04T14:58:15;22.60;96.30
46758;DHT22;32509;47.750;-3.396;2023-06-04T15:00:44;22.60;96.40
46758;DHT22;32509;47.750;-3.396;2023-06-04T15:03:10;22.50;96.60
46758;DHT22;32509;47.750;-3.396;2023-06-04T15:05:36;22.50;96.90
46758;DHT22;32509;47.750;-3.396;2023-06-04T15:08:02;22.60;96.70
46758;DHT22;32509;47.750;-3.396;2023-06-04T15:10:31;22.60;96.40
46758;DHT22;32509;47.750;-3.396;2023-06-04T15:12:59;22.60;96.70
46758;DHT22;32509;47.750;-3.396;2023-06-04T15:15:25;22.50;96.90
46758;DHT22;32509;47.750;-3.396;2023-06-04T15:17:52;22.50;97.10